sensor_id;sensor_type;location;lat;lon;timestamp;pressure;altitude;pressure_sealevel;temperature;humidity
12178;BME280;6152;48.728;9.256;2022-12-07T00:01:16;97121.34;;;2.79;100.00
12178;BME280;6152;48.728;9.256;2022-12-07T00:03:43;97121.25;;;2.82;100.00
12178;BME280;6152;48.728;9.256;2022-12-07T00:06:12;97117.94;;;2.78;100.00
12178;BME280;6152;48.728;9.256;2022-12-07T00:08:39;97117.88;;;2.80;100.00
12178;BME280;6152;48.728;9.256;2022-12-07T00:11:15;97114.41;;;2.81;100.00
12178;BME280;6152;48.728;9.256;2022-12-07T00:13:42;97122.09;;;2.82;100.00
12178;BME280;6152;48.728;9.256;2022-12-07T00:16:14;97116.00;;;2.85;100.00
12178;BME280;6152;48.728;9.256;2022-12-07T00:18:42;97121.16;;;2.85;100.00
12178;BME280;6152;48.728;9.256;2022-12-07T00:21:14;97118.78;;;2.79;100.00
12178;BME280;6152;48.728;9.256;2022-12-07T00:23:41;97117.22;;;2.73;100.00
12178;BME280;6152;48.728;9.256;2022-12-07T00:26:14;97112.22;;;2.69;100.00
12178;BME280;6152;48.728;9.256;2022-12-07T00:28:40;97111.31;;;2.70;100.00
12178;BME280;6152;48.728;9.256;2022-12-07T00:31:09;97117.19;;;2.75;100.00
12178;BME280;6152;48.728;9.256;2022-12-07T00:33:36;97117.09;;;2.78;100.00
12178;BME280;6152;48.728;9.256;2022-12-07T00:36:06;97111.97;;;2.76;100.00
12178;BME280;6152;48.728;9.256;2022-12-07T00:38:34;97112.56;;;2.86;100.00
12178;BME280;6152;48.728;9.256;2022-12-07T00:41:06;97110.97;;;2.82;100.00
12178;BME280;6152;48.728;9.256;2022-12-07T00:43:33;97109.38;;;2.78;100.00
12178;BME280;6152;48.728;9.256;2022-12-07T00:46:00;97108.75;;;2.70;100.00
12178;BME280;6152;48.728;9.256;2022-12-07T00:48:26;97107.09;;;2.69;100.00
12178;BME280;6152;48.728;9.256;2022-12-07T00:50:52;97105.19;;;2.75;100.00
12178;BME280;6152;48.728;9.256;2022-12-07T00:53:19;97109.59;;;2.70;100.00
12178;BME280;6152;48.728;9.256;2022-12-07T00:55:45;97105.34;;;2.69;100.00
12178;BME280;6152;48.728;9.256;2022-12-07T00:58:12;97107.00;;;2.72;100.00
12178;BME280;6152;48.728;9.256;2022-12-07T01:00:40;97104.34;;;2.75;100.00
12178;BME280;6152;48.728;9.256;2022-12-07T01:03:09;97104.34;;;2.75;100.00
12178;BME280;6152;48.728;9.256;2022-12-07T01:05:35;97111.31;;;2.70;100.00
12178;BME280;6152;48.728;9.256;2022-12-07T01:08:01;97109.66;;;2.69;100.00
12178;BME280;6152;48.728;9.256;2022-12-07T01:10:28;97115.59;;;2.71;100.00
12178;BME280;6152;48.728;9.256;2022-12-07T01:12:56;97107.78;;;2.74;100.00
12178;BME280;6152;48.728;9.256;2022-12-07T01:15:22;97105.22;;;2.74;100.00
12178;BME280;6152;48.728;9.256;2022-12-07T01:17:48;97107.03;;;2.70;100.00
12178;BME280;6152;48.728;9.256;2022-12-07T01:20:14;97113.00;;;2.71;100.00
12178;BME280;6152;48.728;9.256;2022-12-07T01:22:42;97109.66;;;2.69;100.00
12178;BME280;6152;48.728;9.256;2022-12-07T01:25:10;97112.34;;;2.64;100.00
12178;BME280;6152;48.728;9.256;2022-12-07T01:27:37;97115.72;;;2.66;100.00
12178;BME280;6152;48.728;9.256;2022-12-07T01:30:05;97114.00;;;2.67;100.00
12178;BME280;6152;48.728;9.256;2022-12-07T01:32:32;97116.56;;;2.67;100.00
12178;BME280;6152;48.728;9.256;2022-12-07T01:34:58;97115.78;;;2.65;100.00
12178;BME280;6152;48.728;9.256;2022-12-07T01:37:25;97127.66;;;2.69;100.00
12178;BME280;6152;48.728;9.256;2022-12-07T01:39:51;97128.63;;;2.65;100.00
12178;BME280;6152;48.728;9.256;2022-12-07T01:42:19;97132.16;;;2.61;100.00
12178;BME280;6152;48.728;9.256;2022-12-07T01:47:51;97127.97;;;2.58;100.00
12178;BME280;6152;48.728;9.256;2022-12-07T01:50:20;97132.44;;;2.51;100.00
12178;BME280;6152;48.728;9.256;2022-12-07T01:52:50;97132.59;;;2.45;100.00
12178;BME280;6152;48.728;9.256;2022-12-07T01:55:17;97133.25;;;2.52;100.00
12178;BME280;6152;48.728;9.256;2022-12-07T01:57:47;97124.13;;;2.42;100.00
12178;BME280;6152;48.728;9.256;2022-12-07T02:00:15;97124.19;;;2.40;100.00
12178;BME280;6152;48.728;9.256;2022-12-07T02:02:54;97129.31;;;2.40;100.00
12178;BME280;6152;48.728;9.256;2022-12-07T02:05:22;97128.47;;;2.40;100.00
12178;BME280;6152;48.728;9.256;2022-12-07T02:07:51;97131.06;;;2.38;100.00
12178;BME280;6152;48.728;9.256;2022-12-07T02:10:22;97129.41;;;2.37;100.00
12178;BME280;6152;48.728;9.256;2022-12-07T02:13:08;97132.94;;;2.33;100.00
12178;BME280;6152;48.728;9.256;2022-12-07T02:30:08;97120.97;;;2.32;100.00
12178;BME280;6152;48.728;9.256;2022-12-07T02:33:14;97112.59;;;2.27;100.00
12178;BME280;6152;48.728;9.256;2022-12-07T02:36:07;97112.59;;;2.27;100.00
12178;BME280;6152;48.728;9.256;2022-12-07T02:43:38;97108.97;;;2.34;100.00
12178;BME280;6152;48.728;9.256;2022-12-07T02:46:13;97117.63;;;2.30;100.00
12178;BME280;6152;48.728;9.256;2022-12-07T02:48:42;97109.00;;;2.31;100.00
12178;BME280;6152;48.728;9.256;2022-12-07T02:51:09;97115.06;;;2.30;100.00
12178;BME280;6152;48.728;9.256;2022-12-07T02:53:40;97105.66;;;2.29;100.00
12178;BME280;6152;48.728;9.256;2022-12-07T03:10:22;97088.75;;;2.22;100.00
12178;BME280;6152;48.728;9.256;2022-12-07T03:12:57;97090.44;;;2.23;100.00
12178;BME280;6152;48.728;9.256;2022-12-07T03:18:22;97085.41;;;2.20;100.00
12178;BME280;6152;48.728;9.256;2022-12-07T03:20:52;97081.97;;;2.20;100.00
12178;BME280;6152;48.728;9.256;2022-12-07T03:23:19;97089.59;;;2.23;100.00
12178;BME280;6152;48.728;9.256;2022-12-07T03:25:50;97087.91;;;2.22;100.00
12178;BME280;6152;48.728;9.256;2022-12-07T03:28:22;97088.78;;;2.21;100.00
12178;BME280;6152;48.728;9.256;2022-12-07T03:30:56;97099.97;;;2.18;100.00
12178;BME280;6152;48.728;9.256;2022-12-07T03:33:42;97088.19;;;2.11;100.00
12178;BME280;6152;48.728;9.256;2022-12-07T03:41:31;97083.06;;;2.11;100.00
12178;BME280;6152;48.728;9.256;2022-12-07T03:43:59;97085.59;;;2.13;100.00
12178;BME280;6152;48.728;9.256;2022-12-07T03:49:22;97077.81;;;2.16;100.00
12178;BME280;6152;48.728;9.256;2022-12-07T03:52:12;97082.09;;;2.15;100.00
12178;BME280;6152;48.728;9.256;2022-12-07T03:55:05;97088.84;;;2.19;100.00
12178;BME280;6152;48.728;9.256;2022-12-07T03:57:33;97081.16;;;2.18;100.00
12178;BME280;6152;48.728;9.256;2022-12-07T04:00:03;97071.75;;;2.18;100.00
12178;BME280;6152;48.728;9.256;2022-12-07T04:02:30;97081.16;;;2.18;100.00
12178;BME280;6152;48.728;9.256;2022-12-07T04:04:56;97076.88;;;2.18;100.00
12178;BME280;6152;48.728;9.256;2022-12-07T04:07:22;97076.88;;;2.18;100.00
12178;BME280;6152;48.728;9.256;2022-12-07T04:09:49;97076.03;;;2.18;100.00
12178;BME280;6152;48.728;9.256;2022-12-07T04:12:15;97076.78;;;2.21;100.00
12178;BME280;6152;48.728;9.256;2022-12-07T04:14:41;97065.63;;;2.24;100.00
12178;BME280;6152;48.728;9.256;2022-12-07T04:17:08;97066.59;;;2.18;100.00
12178;BME280;6152;48.728;9.256;2022-12-07T04:19:34;97074.53;;;2.11;100.00
12178;BME280;6152;48.728;9.256;2022-12-07T04:22:02;97066.06;;;2.07;100.00
12178;BME280;6152;48.728;9.256;2022-12-07T04:24:29;97069.63;;;2.03;100.00
12178;BME280;6152;48.728;9.256;2022-12-07T04:26:55;97069.75;;;1.98;100.00
12178;BME280;6152;48.728;9.256;2022-12-07T04:29:22;97070.69;;;1.96;100.00
12178;BME280;6152;48.728;9.256;2022-12-07T04:31:48;97075.91;;;1.93;100.00
12178;BME280;6152;48.728;9.256;2022-12-07T04:34:15;97074.13;;;1.95;100.00
12178;BME280;6152;48.728;9.256;2022-12-07T04:36:42;97062.16;;;1.94;100.00
12178;BME280;6152;48.728;9.256;2022-12-07T04:39:21;97055.44;;;1.90;100.00
12178;BME280;6152;48.728;9.256;2022-12-07T04:41:47;97055.38;;;1.93;100.00
12178;BME280;6152;48.728;9.256;2022-12-07T04:44:14;97049.53;;;1.86;100.00
12178;BME280;6152;48.728;9.256;2022-12-07T04:46:41;97036.09;;;1.78;100.00
12178;BME280;6152;48.728;9.256;2022-12-07T04:49:08;97046.56;;;1.71;100.00
12178;BME280;6152;48.728;9.256;2022-12-07T04:51:34;97050.00;;;1.70;100.00
12178;BME280;6152;48.728;9.256;2022-12-07T04:54:00;97051.03;;;1.63;100.00
12178;BME280;6152;48.728;9.256;2022-12-07T04:56:26;97046.81;;;1.62;100.00
12178;BME280;6152;48.728;9.256;2022-12-07T04:58:54;97040.09;;;1.58;100.00
12178;BME280;6152;48.728;9.256;2022-12-07T05:01:22;97047.78;;;1.58;100.00
12178;BME280;6152;48.728;9.256;2022-12-07T05:03:48;97045.25;;;1.56;100.00
12178;BME280;6152;48.728;9.256;2022-12-07T05:06:15;97035.03;;;1.55;100.00
12178;BME280;6152;48.728;9.256;2022-12-07T05:08:42;97031.53;;;1.57;100.00
12178;BME280;6152;48.728;9.256;2022-12-07T05:11:09;97034.88;;;1.61;100.00
12178;BME280;6152;48.728;9.256;2022-12-07T05:13:55;97030.53;;;1.63;100.00
12178;BME280;6152;48.728;9.256;2022-12-07T05:16:22;97029.66;;;1.64;100.00
12178;BME280;6152;48.728;9.256;2022-12-07T05:18:48;97028.78;;;1.65;100.00
12178;BME280;6152;48.728;9.256;2022-12-07T05:21:14;97034.75;;;1.65;100.00
12178;BME280;6152;48.728;9.256;2022-12-07T05:23:40;97039.06;;;1.63;100.00
12178;BME280;6152;48.728;9.256;2022-12-07T05:26:06;97032.22;;;1.64;100.00
12178;BME280;6152;48.728;9.256;2022-12-07T05:28:32;97030.38;;;1.69;100.00
12178;BME280;6152;48.728;9.256;2022-12-07T05:30:58;97032.13;;;1.67;100.00
12178;BME280;6152;48.728;9.256;2022-12-07T05:33:24;97033.91;;;1.65;100.00
12178;BME280;6152;48.728;9.256;2022-12-07T05:35:50;97035.75;;;1.60;100.00
12178;BME280;6152;48.728;9.256;2022-12-07T05:38:17;97042.81;;;1.51;100.00
12178;BME280;6152;48.728;9.256;2022-12-07T05:40:43;97038.63;;;1.47;100.00
12178;BME280;6152;48.728;9.256;2022-12-07T05:43:09;97048.06;;;1.45;100.00
12178;BME280;6152;48.728;9.256;2022-12-07T05:45:36;97049.84;;;1.43;100.00
12178;BME280;6152;48.728;9.256;2022-12-07T05:48:02;97048.16;;;1.42;100.00
12178;BME280;6152;48.728;9.256;2022-12-07T05:50:28;97051.59;;;1.41;100.00
12178;BME280;6152;48.728;9.256;2022-12-07T05:52:54;97056.00;;;1.38;100.00
12178;BME280;6152;48.728;9.256;2022-12-07T05:55:20;97057.81;;;1.33;100.00
12178;BME280;6152;48.728;9.256;2022-12-07T05:57:46;97070.81;;;1.25;100.00
12178;BME280;6152;48.728;9.256;2022-12-07T06:00:32;97071.00;;;1.18;100.00
12178;BME280;6152;48.728;9.256;2022-12-07T06:02:58;97062.53;;;1.14;100.00
12178;BME280;6152;48.728;9.256;2022-12-07T06:05:24;97067.56;;;1.19;100.00
12178;BME280;6152;48.728;9.256;2022-12-07T06:07:50;97065.75;;;1.22;100.00
12178;BME280;6152;48.728;9.256;2022-12-07T06:10:16;97064.16;;;1.18;100.00
12178;BME280;6152;48.728;9.256;2022-12-07T06:12:42;97063.38;;;1.16;100.00
12178;BME280;6152;48.728;9.256;2022-12-07T06:15:11;97058.31;;;1.13;100.00
12178;BME280;6152;48.728;9.256;2022-12-07T06:17:39;97073.63;;;1.15;100.00
12178;BME280;6152;48.728;9.256;2022-12-07T06:20:06;97067.63;;;1.16;100.00
12178;BME280;6152;48.728;9.256;2022-12-07T06:22:32;97062.41;;;1.20;100.00
12178;BME280;6152;48.728;9.256;2022-12-07T06:24:58;97072.59;;;1.23;100.00
12178;BME280;6152;48.728;9.256;2022-12-07T06:27:24;97071.69;;;1.24;100.00
12178;BME280;6152;48.728;9.256;2022-12-07T06:29:50;97065.75;;;1.22;100.00
12178;BME280;6152;48.728;9.256;2022-12-07T06:32:16;97068.34;;;1.22;100.00
12178;BME280;6152;48.728;9.256;2022-12-07T06:34:42;97072.50;;;1.26;100.00
12178;BME280;6152;48.728;9.256;2022-12-07T06:37:08;97067.38;;;1.26;100.00
12178;BME280;6152;48.728;9.256;2022-12-07T06:39:35;97071.66;;;1.26;100.00
12178;BME280;6152;48.728;9.256;2022-12-07T06:42:01;97080.84;;;1.34;100.00
12178;BME280;6152;48.728;9.256;2022-12-07T06:44:27;97080.84;;;1.34;100.00
12178;BME280;6152;48.728;9.256;2022-12-07T06:46:54;97081.69;;;1.35;100.00
12178;BME280;6152;48.728;9.256;2022-12-07T06:49:20;97082.53;;;1.35;100.00
12178;BME280;6152;48.728;9.256;2022-12-07T06:51:46;97080.78;;;1.37;100.00
12178;BME280;6152;48.728;9.256;2022-12-07T06:54:14;97073.88;;;1.39;100.00
12178;BME280;6152;48.728;9.256;2022-12-07T06:56:40;97078.94;;;1.42;100.00
12178;BME280;6152;48.728;9.256;2022-12-07T06:59:07;97067.88;;;1.40;100.00
12178;BME280;6152;48.728;9.256;2022-12-07T07:01:35;97079.78;;;1.41;100.00
12178;BME280;6152;48.728;9.256;2022-12-07T07:04:01;97091.03;;;1.37;100.00
12178;BME280;6152;48.728;9.256;2022-12-07T07:06:28;97099.50;;;1.39;100.00
12178;BME280;6152;48.728;9.256;2022-12-07T07:08:54;97104.56;;;1.42;100.00
12178;BME280;6152;48.728;9.256;2022-12-07T07:11:20;97091.03;;;1.37;100.00
12178;BME280;6152;48.728;9.256;2022-12-07T07:13:46;97094.47;;;1.36;100.00
12178;BME280;6152;48.728;9.256;2022-12-07T07:16:13;97092.78;;;1.35;100.00
12178;BME280;6152;48.728;9.256;2022-12-07T07:18:39;97099.50;;;1.39;100.00
12178;BME280;6152;48.728;9.256;2022-12-07T07:21:05;97097.75;;;1.41;100.00
12178;BME280;6152;48.728;9.256;2022-12-07T07:23:32;97101.03;;;1.46;100.00
12178;BME280;6152;48.728;9.256;2022-12-07T07:25:58;97097.63;;;1.47;100.00
12178;BME280;6152;48.728;9.256;2022-12-07T07:28:24;97100.97;;;1.49;100.00
12178;BME280;6152;48.728;9.256;2022-12-07T07:30:50;97092.34;;;1.52;100.00
12178;BME280;6152;48.728;9.256;2022-12-07T07:33:17;97095.75;;;1.52;100.00
12178;BME280;6152;48.728;9.256;2022-12-07T07:35:43;97104.34;;;1.51;100.00
12178;BME280;6152;48.728;9.256;2022-12-07T07:38:09;97105.16;;;1.52;100.00
12178;BME280;6152;48.728;9.256;2022-12-07T07:40:35;97105.94;;;1.56;100.00
12178;BME280;6152;48.728;9.256;2022-12-07T07:43:02;97109.41;;;1.55;100.00
12178;BME280;6152;48.728;9.256;2022-12-07T07:45:28;97105.06;;;1.57;100.00
12178;BME280;6152;48.728;9.256;2022-12-07T07:47:55;97103.31;;;1.59;100.00
12178;BME280;6152;48.728;9.256;2022-12-07T07:50:21;97113.53;;;1.60;100.00
12178;BME280;6152;48.728;9.256;2022-12-07T07:52:48;97114.19;;;1.67;100.00
12178;BME280;6152;48.728;9.256;2022-12-07T07:55:15;97112.47;;;1.69;100.00
12178;BME280;6152;48.728;9.256;2022-12-07T07:57:41;97113.28;;;1.69;100.00
12178;BME280;6152;48.728;9.256;2022-12-07T08:00:14;97116.66;;;1.71;100.00
12178;BME280;6152;48.728;9.256;2022-12-07T08:02:41;97114.84;;;1.75;100.00
12178;BME280;6152;48.728;9.256;2022-12-07T08:05:12;97110.50;;;1.77;100.00
12178;BME280;6152;48.728;9.256;2022-12-07T08:07:39;97108.13;;;1.71;100.00
12178;BME280;6152;48.728;9.256;2022-12-07T08:10:06;97111.44;;;1.74;100.00
12178;BME280;6152;48.728;9.256;2022-12-07T08:12:36;97112.31;;;1.73;100.00
12178;BME280;6152;48.728;9.256;2022-12-07T08:15:03;97112.97;;;1.81;100.00
12178;BME280;6152;48.728;9.256;2022-12-07T08:17:30;97112.22;;;1.78;100.00
12178;BME280;6152;48.728;9.256;2022-12-07T08:19:56;97122.38;;;1.81;100.00
12178;BME280;6152;48.728;9.256;2022-12-07T08:22:22;97120.66;;;1.81;100.00
12178;BME280;6152;48.728;9.256;2022-12-07T08:24:48;97117.25;;;1.81;100.00
12178;BME280;6152;48.728;9.256;2022-12-07T08:27:14;97118.78;;;1.88;100.00
12178;BME280;6152;48.728;9.256;2022-12-07T08:29:40;97120.38;;;1.92;100.00
12178;BME280;6152;48.728;9.256;2022-12-07T08:32:06;97118.69;;;1.91;100.00
12178;BME280;6152;48.728;9.256;2022-12-07T08:34:33;97125.53;;;1.92;100.00
12178;BME280;6152;48.728;9.256;2022-12-07T08:36:59;97125.44;;;1.95;100.00
12178;BME280;6152;48.728;9.256;2022-12-07T08:39:25;97126.69;;;2.11;100.00
12178;BME280;6152;48.728;9.256;2022-12-07T08:41:51;97118.13;;;2.12;100.00
12178;BME280;6152;48.728;9.256;2022-12-07T08:44:17;97121.53;;;2.13;100.00
12178;BME280;6152;48.728;9.256;2022-12-07T08:46:52;97126.38;;;2.23;100.00
12178;BME280;6152;48.728;9.256;2022-12-07T08:49:31;97119.47;;;2.25;100.00
12178;BME280;6152;48.728;9.256;2022-12-07T08:51:58;97120.28;;;2.27;100.00
12178;BME280;6152;48.728;9.256;2022-12-07T08:54:25;97126.66;;;2.43;100.00
12178;BME280;6152;48.728;9.256;2022-12-07T08:56:51;97129.09;;;2.48;100.00
12178;BME280;6152;48.728;9.256;2022-12-07T08:59:19;97130.75;;;2.50;100.00
12178;BME280;6152;48.728;9.256;2022-12-07T09:01:46;97129.63;;;2.59;100.00
12178;BME280;6152;48.728;9.256;2022-12-07T09:04:12;97124.16;;;2.70;100.00
12178;BME280;6152;48.728;9.256;2022-12-07T09:06:39;97121.84;;;2.90;100.00
12178;BME280;6152;48.728;9.256;2022-12-07T09:09:05;97130.69;;;3.09;100.00
12178;BME280;6152;48.728;9.256;2022-12-07T09:11:32;97131.97;;;3.22;100.00
12178;BME280;6152;48.728;9.256;2022-12-07T09:13:58;97126.09;;;3.19;100.00
12178;BME280;6152;48.728;9.256;2022-12-07T09:16:24;97126.97;;;3.18;100.00
12178;BME280;6152;48.728;9.256;2022-12-07T09:18:50;97125.16;;;3.21;100.00
12178;BME280;6152;48.728;9.256;2022-12-07T09:21:16;97131.31;;;3.43;100.00
12178;BME280;6152;48.728;9.256;2022-12-07T09:23:43;97129.13;;;3.58;100.00
12178;BME280;6152;48.728;9.256;2022-12-07T09:26:09;97120.13;;;3.71;100.00
12178;BME280;6152;48.728;9.256;2022-12-07T09:28:35;97133.50;;;3.80;100.00
12178;BME280;6152;48.728;9.256;2022-12-07T09:31:02;97131.47;;;3.90;100.00
12178;BME280;6152;48.728;9.256;2022-12-07T09:33:29;97128.94;;;3.88;100.00
12178;BME280;6152;48.728;9.256;2022-12-07T09:35:55;97126.31;;;3.90;100.00
12178;BME280;6152;48.728;9.256;2022-12-07T09:38:21;97125.31;;;3.94;100.00
12178;BME280;6152;48.728;9.256;2022-12-07T09:40:48;97125.03;;;4.03;100.00
12178;BME280;6152;48.728;9.256;2022-12-07T09:43:23;97124.22;;;4.01;100.00
12178;BME280;6152;48.728;9.256;2022-12-07T09:45:52;97132.31;;;3.90;100.00
12178;BME280;6152;48.728;9.256;2022-12-07T09:48:25;97128.31;;;3.82;100.00
12178;BME280;6152;48.728;9.256;2022-12-07T09:50:54;97120.69;;;4.03;100.00
12178;BME280;6152;48.728;9.256;2022-12-07T09:55:51;97109.59;;;4.26;100.00
12178;BME280;6152;48.728;9.256;2022-12-07T09:58:28;97107.50;;;4.59;100.00
12178;BME280;6152;48.728;9.256;2022-12-07T10:01:10;97103.84;;;4.88;100.00
12178;BME280;6152;48.728;9.256;2022-12-07T10:03:40;97106.50;;;5.08;100.00
12178;BME280;6152;48.728;9.256;2022-12-07T10:06:09;97097.03;;;5.30;100.00
12178;BME280;6152;48.728;9.256;2022-12-07T10:08:36;97099.38;;;5.56;100.00
12178;BME280;6152;48.728;9.256;2022-12-07T10:11:03;97099.81;;;5.88;100.00
12178;BME280;6152;48.728;9.256;2022-12-07T10:13:39;97086.59;;;5.74;100.00
12178;BME280;6152;48.728;9.256;2022-12-07T10:16:08;97092.16;;;5.65;100.00
12178;BME280;6152;48.728;9.256;2022-12-07T10:18:53;97087.00;;;5.65;100.00
12178;BME280;6152;48.728;9.256;2022-12-07T10:21:24;97077.44;;;5.46;100.00
12178;BME280;6152;48.728;9.256;2022-12-07T10:26:39;97090.16;;;5.51;100.00
12178;BME280;6152;48.728;9.256;2022-12-07T10:29:21;97079.84;;;5.29;100.00
12178;BME280;6152;48.728;9.256;2022-12-07T10:32:06;97082.50;;;5.06;100.00
12178;BME280;6152;48.728;9.256;2022-12-07T10:34:36;97079.72;;;5.10;100.00
12178;BME280;6152;48.728;9.256;2022-12-07T10:37:20;97077.22;;;5.09;100.00
12178;BME280;6152;48.728;9.256;2022-12-07T10:39:53;97082.81;;;4.98;100.00
12178;BME280;6152;48.728;9.256;2022-12-07T10:42:25;97081.50;;;5.10;100.00
12178;BME280;6152;48.728;9.256;2022-12-07T10:45:15;97069.50;;;5.09;100.00
12178;BME280;6152;48.728;9.256;2022-12-07T10:48:02;97074.16;;;5.21;100.00
12178;BME280;6152;48.728;9.256;2022-12-07T10:53:34;97065.09;;;5.11;100.00
12178;BME280;6152;48.728;9.256;2022-12-07T10:56:24;97067.56;;;5.14;100.00
12178;BME280;6152;48.728;9.256;2022-12-07T11:01:41;97058.13;;;4.93;100.00
12178;BME280;6152;48.728;9.256;2022-12-07T11:04:21;97062.47;;;4.91;100.00
12178;BME280;6152;48.728;9.256;2022-12-07T11:07:12;97053.69;;;4.96;100.00
12178;BME280;6152;48.728;9.256;2022-12-07T11:31:48;97030.59;;;4.72;100.00
12178;BME280;6152;48.728;9.256;2022-12-07T11:37:23;97032.38;;;4.70;100.00
12178;BME280;6152;48.728;9.256;2022-12-07T11:39:54;97025.31;;;4.75;100.00
12178;BME280;6152;48.728;9.256;2022-12-07T11:42:27;97023.03;;;4.67;100.00
12178;BME280;6152;48.728;9.256;2022-12-07T11:45:15;97017.75;;;4.70;100.00
12178;BME280;6152;48.728;9.256;2022-12-07T11:47:59;97007.28;;;4.75;100.00
12178;BME280;6152;48.728;9.256;2022-12-07T11:50:35;97013.25;;;4.53;100.00
12178;BME280;6152;48.728;9.256;2022-12-07T12:07:17;96994.84;;;5.06;100.00
12178;BME280;6152;48.728;9.256;2022-12-07T12:18:34;96985.97;;;4.70;100.00
12178;BME280;6152;48.728;9.256;2022-12-07T12:21:12;96991.38;;;4.64;100.00
12178;BME280;6152;48.728;9.256;2022-12-07T12:23:54;96986.34;;;4.61;100.00
12178;BME280;6152;48.728;9.256;2022-12-07T12:26:25;96989.94;;;4.56;100.00
12178;BME280;6152;48.728;9.256;2022-12-07T12:29:18;96988.25;;;4.55;100.00
12178;BME280;6152;48.728;9.256;2022-12-07T12:31:48;96983.91;;;4.57;100.00
12178;BME280;6152;48.728;9.256;2022-12-07T12:34:32;96984.66;;;4.59;100.00
12178;BME280;6152;48.728;9.256;2022-12-07T12:36:59;96977.72;;;4.62;100.00
12178;BME280;6152;48.728;9.256;2022-12-07T12:39:26;96981.91;;;4.64;100.00
12178;BME280;6152;48.728;9.256;2022-12-07T12:41:54;96975.16;;;4.62;100.00
12178;BME280;6152;48.728;9.256;2022-12-07T12:47:00;96976.28;;;4.54;100.00
12178;BME280;6152;48.728;9.256;2022-12-07T12:49:36;96981.50;;;4.53;100.00
12178;BME280;6152;48.728;9.256;2022-12-07T12:55:13;96975.13;;;4.40;100.00
12178;BME280;6152;48.728;9.256;2022-12-07T12:57:40;96971.84;;;4.36;100.00
12178;BME280;6152;48.728;9.256;2022-12-07T13:00:20;96970.63;;;4.23;100.00
12178;BME280;6152;48.728;9.256;2022-12-07T13:02:52;96968.81;;;4.25;100.00
12178;BME280;6152;48.728;9.256;2022-12-07T13:05:24;96954.34;;;4.23;100.00
12178;BME280;6152;48.728;9.256;2022-12-07T13:10:44;96952.16;;;4.12;100.00
12178;BME280;6152;48.728;9.256;2022-12-07T13:15:40;96957.56;;;4.06;100.00
12178;BME280;6152;48.728;9.256;2022-12-07T13:18:34;96942.31;;;4.00;100.00
12178;BME280;6152;48.728;9.256;2022-12-07T13:26:17;96941.69;;;3.93;100.00
12178;BME280;6152;48.728;9.256;2022-12-07T13:34:36;96942.75;;;3.89;100.00
12178;BME280;6152;48.728;9.256;2022-12-07T13:39:51;96935.63;;;3.96;100.00
12178;BME280;6152;48.728;9.256;2022-12-07T13:42:30;96942.44;;;3.97;100.00
12178;BME280;6152;48.728;9.256;2022-12-07T13:44:59;96940.03;;;3.92;100.00
12178;BME280;6152;48.728;9.256;2022-12-07T13:47:44;96943.56;;;3.90;100.00
12178;BME280;6152;48.728;9.256;2022-12-07T13:50:27;96942.66;;;3.91;100.00
12178;BME280;6152;48.728;9.256;2022-12-07T13:52:57;96933.09;;;3.94;100.00
12178;BME280;6152;48.728;9.256;2022-12-07T13:55:24;96936.78;;;3.87;100.00
12178;BME280;6152;48.728;9.256;2022-12-07T13:57:52;96940.31;;;3.85;100.00
12178;BME280;6152;48.728;9.256;2022-12-07T14:00:21;96935.28;;;3.82;100.00
12178;BME280;6152;48.728;9.256;2022-12-07T14:05:42;96935.94;;;3.87;100.00
12178;BME280;6152;48.728;9.256;2022-12-07T14:10:53;96934.53;;;4.01;100.00
12178;BME280;6152;48.728;9.256;2022-12-07T14:16:25;96935.63;;;3.96;100.00
12178;BME280;6152;48.728;9.256;2022-12-07T14:18:52;96934.78;;;3.95;100.00
12178;BME280;6152;48.728;9.256;2022-12-07T14:21:22;96937.00;;;4.04;100.00
12178;BME280;6152;48.728;9.256;2022-12-07T14:26:41;96932.69;;;4.05;100.00
12178;BME280;6152;48.728;9.256;2022-12-07T14:29:29;96926.78;;;4.03;100.00
12178;BME280;6152;48.728;9.256;2022-12-07T14:31:58;96927.78;;;3.99;100.00
12178;BME280;6152;48.728;9.256;2022-12-07T14:34:25;96926.94;;;3.98;100.00
12178;BME280;6152;48.728;9.256;2022-12-07T14:36:51;96928.78;;;3.95;100.00
12178;BME280;6152;48.728;9.256;2022-12-07T14:39:17;96928.06;;;3.91;100.00
12178;BME280;6152;48.728;9.256;2022-12-07T14:41:44;96935.63;;;3.96;100.00
12178;BME280;6152;48.728;9.256;2022-12-07T14:44:17;96938.34;;;3.91;100.00
12178;BME280;6152;48.728;9.256;2022-12-07T14:46:44;96924.72;;;3.89;100.00
12178;BME280;6152;48.728;9.256;2022-12-07T14:49:10;96937.88;;;3.82;100.00
12178;BME280;6152;48.728;9.256;2022-12-07T14:51:38;96931.25;;;3.75;100.00
12178;BME280;6152;48.728;9.256;2022-12-07T14:54:24;96932.94;;;3.76;100.00
12178;BME280;6152;48.728;9.256;2022-12-07T14:56:52;96933.88;;;3.73;100.00
12178;BME280;6152;48.728;9.256;2022-12-07T14:59:18;96936.66;;;3.69;100.00
12178;BME280;6152;48.728;9.256;2022-12-07T15:01:45;96936.72;;;3.66;100.00
12178;BME280;6152;48.728;9.256;2022-12-07T15:04:11;96937.56;;;3.66;100.00
12178;BME280;6152;48.728;9.256;2022-12-07T15:06:37;96935.00;;;3.66;100.00
12178;BME280;6152;48.728;9.256;2022-12-07T15:09:04;96933.16;;;3.70;100.00
12178;BME280;6152;48.728;9.256;2022-12-07T15:11:30;96937.44;;;3.69;100.00
12178;BME280;6152;48.728;9.256;2022-12-07T15:13:56;96939.09;;;3.72;100.00
12178;BME280;6152;48.728;9.256;2022-12-07T15:16:36;96935.94;;;3.64;100.00
12178;BME280;6152;48.728;9.256;2022-12-07T15:19:03;96935.94;;;3.64;100.00
12178;BME280;6152;48.728;9.256;2022-12-07T15:21:29;96938.66;;;3.61;100.00
12178;BME280;6152;48.728;9.256;2022-12-07T15:23:55;96931.69;;;3.63;100.00
12178;BME280;6152;48.728;9.256;2022-12-07T15:26:21;96928.13;;;3.67;100.00
12178;BME280;6152;48.728;9.256;2022-12-07T15:28:47;96934.38;;;3.60;100.00
12178;BME280;6152;48.728;9.256;2022-12-07T15:31:17;96924.03;;;3.61;100.00
12178;BME280;6152;48.728;9.256;2022-12-07T15:33:44;96935.25;;;3.58;100.00
12178;BME280;6152;48.728;9.256;2022-12-07T15:36:20;96925.94;;;3.56;100.00
12178;BME280;6152;48.728;9.256;2022-12-07T15:38:47;96929.34;;;3.56;100.00
12178;BME280;6152;48.728;9.256;2022-12-07T15:41:13;96921.84;;;3.50;100.00
12178;BME280;6152;48.728;9.256;2022-12-07T15:43:40;96932.81;;;3.55;100.00
12178;BME280;6152;48.728;9.256;2022-12-07T15:46:28;96931.31;;;3.50;100.00